sensor_id;sensor_type;location;lat;lon;timestamp;temperature;humidity
4406;DHT22;2216;53.806;11.598;2023-09-18T00:01:38;18.70;65.10
4406;DHT22;2216;53.806;11.598;2023-09-18T00:04:06;18.90;65.20
4406;DHT22;2216;53.806;11.598;2023-09-18T00:06:33;18.70;65.00
4406;DHT22;2216;53.806;11.598;2023-09-18T00:08:59;18.60;65.00
4406;DHT22;2216;53.806;11.598;2023-09-18T00:11:24;18.70;65.00
4406;DHT22;2216;53.806;11.598;2023-09-18T00:13:50;18.70;65.00
4406;DHT22;2216;53.806;11.598;2023-09-18T00:16:16;18.70;65.00
4406;DHT22;2216;53.806;11.598;2023-09-18T00:18:42;18.70;65.00
4406;DHT22;2216;53.806;11.598;2023-09-18T00:21:10;18.70;64.90
4406;DHT22;2216;53.806;11.598;2023-09-18T00:23:37;18.70;64.90
4406;DHT22;2216;53.806;11.598;2023-09-18T00:26:03;18.70;64.90
4406;DHT22;2216;53.806;11.598;2023-09-18T00:28:29;18.70;64.90
4406;DHT22;2216;53.806;11.598;2023-09-18T00:30:55;18.70;64.90
4406;DHT22;2216;53.806;11.598;2023-09-18T00:33:20;18.70;64.90
4406;DHT22;2216;53.806;11.598;2023-09-18T00:35:50;18.70;64.90
4406;DHT22;2216;53.806;11.598;2023-09-18T00:38:17;18.70;64.90
4406;DHT22;2216;53.806;11.598;2023-09-18T00:40:44;18.60;64.80
4406;DHT22;2216;53.806;11.598;2023-09-18T00:43:10;18.60;64.80
4406;DHT22;2216;53.806;11.598;2023-09-18T00:45:40;18.60;64.80
4406;DHT22;2216;53.806;11.598;2023-09-18T00:48:08;18.60;64.90
4406;DHT22;2216;53.806;11.598;2023-09-18T00:50:34;18.60;64.90
4406;DHT22;2216;53.806;11.598;2023-09-18T00:53:00;18.60;64.90
4406;DHT22;2216;53.806;11.598;2023-09-18T00:55:27;18.60;64.80
4406;DHT22;2216;53.806;11.598;2023-09-18T00:57:55;18.50;64.80
4406;DHT22;2216;53.806;11.598;2023-09-18T01:00:21;18.50;65.10
4406;DHT22;2216;53.806;11.598;2023-09-18T01:02:47;18.50;64.90
4406;DHT22;2216;53.806;11.598;2023-09-18T01:05:13;18.50;65.00
4406;DHT22;2216;53.806;11.598;2023-09-18T01:07:42;18.50;65.00
4406;DHT22;2216;53.806;11.598;2023-09-18T01:10:08;18.50;65.20
4406;DHT22;2216;53.806;11.598;2023-09-18T01:12:47;18.40;65.00
4406;DHT22;2216;53.806;11.598;2023-09-18T01:15:22;18.40;65.20
4406;DHT22;2216;53.806;11.598;2023-09-18T01:17:53;18.40;65.40
4406;DHT22;2216;53.806;11.598;2023-09-18T01:20:19;18.40;65.30
4406;DHT22;2216;53.806;11.598;2023-09-18T01:22:45;18.30;65.10
4406;DHT22;2216;53.806;11.598;2023-09-18T01:25:11;18.30;65.10
4406;DHT22;2216;53.806;11.598;2023-09-18T01:27:36;18.30;65.10
4406;DHT22;2216;53.806;11.598;2023-09-18T01:30:02;18.30;65.10
4406;DHT22;2216;53.806;11.598;2023-09-18T01:32:31;18.30;65.00
4406;DHT22;2216;53.806;11.598;2023-09-18T01:35:00;18.30;65.10
4406;DHT22;2216;53.806;11.598;2023-09-18T01:37:28;18.20;65.10
4406;DHT22;2216;53.806;11.598;2023-09-18T01:39:55;18.20;65.00
4406;DHT22;2216;53.806;11.598;2023-09-18T01:42:25;18.20;65.00
4406;DHT22;2216;53.806;11.598;2023-09-18T01:44:53;18.20;65.00
4406;DHT22;2216;53.806;11.598;2023-09-18T01:47:20;18.10;65.00
4406;DHT22;2216;53.806;11.598;2023-09-18T01:49:52;18.10;65.00
4406;DHT22;2216;53.806;11.598;2023-09-18T01:52:17;18.10;65.00
4406;DHT22;2216;53.806;11.598;2023-09-18T01:54:43;18.10;65.10
4406;DHT22;2216;53.806;11.598;2023-09-18T01:57:09;18.10;65.10
4406;DHT22;2216;53.806;11.598;2023-09-18T01:59:35;18.10;65.10
4406;DHT22;2216;53.806;11.598;2023-09-18T02:02:01;18.10;65.10
4406;DHT22;2216;53.806;11.598;2023-09-18T02:04:29;18.00;65.10
4406;DHT22;2216;53.806;11.598;2023-09-18T02:06:55;18.00;65.10
4406;DHT22;2216;53.806;11.598;2023-09-18T02:09:22;18.00;65.10
4406;DHT22;2216;53.806;11.598;2023-09-18T02:11:48;18.00;65.10
4406;DHT22;2216;53.806;11.598;2023-09-18T02:14:14;18.00;65.10
4406;DHT22;2216;53.806;11.598;2023-09-18T02:16:41;17.90;65.10
4406;DHT22;2216;53.806;11.598;2023-09-18T02:19:09;17.90;65.10
4406;DHT22;2216;53.806;11.598;2023-09-18T02:21:36;18.00;65.30
4406;DHT22;2216;53.806;11.598;2023-09-18T02:24:02;18.00;65.30
4406;DHT22;2216;53.806;11.598;2023-09-18T02:26:28;18.00;65.40
4406;DHT22;2216;53.806;11.598;2023-09-18T02:28:57;18.00;65.40
4406;DHT22;2216;53.806;11.598;2023-09-18T02:31:25;18.00;65.40
4406;DHT22;2216;53.806;11.598;2023-09-18T02:33:51;18.00;65.40
4406;DHT22;2216;53.806;11.598;2023-09-18T02:36:16;18.00;65.30
4406;DHT22;2216;53.806;11.598;2023-09-18T02:38:42;17.90;65.20
4406;DHT22;2216;53.806;11.598;2023-09-18T02:41:09;17.90;65.20
4406;DHT22;2216;53.806;11.598;2023-09-18T02:43:35;17.90;65.20
4406;DHT22;2216;53.806;11.598;2023-09-18T02:46:03;17.90;65.20
4406;DHT22;2216;53.806;11.598;2023-09-18T02:48:31;17.80;65.10
4406;DHT22;2216;53.806;11.598;2023-09-18T02:50:59;17.80;65.10
4406;DHT22;2216;53.806;11.598;2023-09-18T02:53:25;17.80;65.90
4406;DHT22;2216;53.806;11.598;2023-09-18T02:55:52;17.80;65.10
4406;DHT22;2216;53.806;11.598;2023-09-18T02:58:20;17.80;65.10
4406;DHT22;2216;53.806;11.598;2023-09-18T03:00:49;17.70;65.10
4406;DHT22;2216;53.806;11.598;2023-09-18T03:03:16;17.80;65.30
4406;DHT22;2216;53.806;11.598;2023-09-18T03:05:43;17.70;65.30
4406;DHT22;2216;53.806;11.598;2023-09-18T03:08:10;17.70;65.40
4406;DHT22;2216;53.806;11.598;2023-09-18T03:10:38;17.70;65.40
4406;DHT22;2216;53.806;11.598;2023-09-18T03:13:06;17.70;65.40
4406;DHT22;2216;53.806;11.598;2023-09-18T03:15:33;17.70;65.60
4406;DHT22;2216;53.806;11.598;2023-09-18T03:18:00;17.60;65.50
4406;DHT22;2216;53.806;11.598;2023-09-18T03:20:27;17.60;65.50
4406;DHT22;2216;53.806;11.598;2023-09-18T03:22:58;17.60;65.40
4406;DHT22;2216;53.806;11.598;2023-09-18T03:25:25;17.60;65.40
4406;DHT22;2216;53.806;11.598;2023-09-18T03:27:52;17.60;65.40
4406;DHT22;2216;53.806;11.598;2023-09-18T03:30:19;17.60;65.40
4406;DHT22;2216;53.806;11.598;2023-09-18T03:32:46;17.60;65.40
4406;DHT22;2216;53.806;11.598;2023-09-18T03:35:13;17.60;65.40
4406;DHT22;2216;53.806;11.598;2023-09-18T03:40:11;17.50;65.30
4406;DHT22;2216;53.806;11.598;2023-09-18T03:42:37;17.50;65.40
4406;DHT22;2216;53.806;11.598;2023-09-18T03:45:05;17.50;65.40
4406;DHT22;2216;53.806;11.598;2023-09-18T03:47:33;17.50;65.40
4406;DHT22;2216;53.806;11.598;2023-09-18T03:49:59;17.50;65.40
4406;DHT22;2216;53.806;11.598;2023-09-18T03:52:25;17.50;65.50
4406;DHT22;2216;53.806;11.598;2023-09-18T03:54:50;17.50;65.50
4406;DHT22;2216;53.806;11.598;2023-09-18T03:57:16;17.40;65.40
4406;DHT22;2216;53.806;11.598;2023-09-18T03:59:42;17.40;65.50
4406;DHT22;2216;53.806;11.598;2023-09-18T04:02:07;17.40;65.50
4406;DHT22;2216;53.806;11.598;2023-09-18T04:04:33;17.40;65.60
4406;DHT22;2216;53.806;11.598;2023-09-18T04:06:59;17.40;65.50
4406;DHT22;2216;53.806;11.598;2023-09-18T04:09:24;17.40;65.60
4406;DHT22;2216;53.806;11.598;2023-09-18T04:11:50;17.20;65.50
4406;DHT22;2216;53.806;11.598;2023-09-18T04:14:16;17.40;65.60
4406;DHT22;2216;53.806;11.598;2023-09-18T04:16:42;17.50;65.80
4406;DHT22;2216;53.806;11.598;2023-09-18T04:19:08;17.40;65.80
4406;DHT22;2216;53.806;11.598;2023-09-18T04:21:35;17.50;65.90
4406;DHT22;2216;53.806;11.598;2023-09-18T04:24:01;17.50;65.80
4406;DHT22;2216;53.806;11.598;2023-09-18T04:26:27;17.50;65.80
4406;DHT22;2216;53.806;11.598;2023-09-18T04:28:56;17.50;65.80
4406;DHT22;2216;53.806;11.598;2023-09-18T04:31:23;17.50;65.80
4406;DHT22;2216;53.806;11.598;2023-09-18T04:33:49;17.50;65.90
4406;DHT22;2216;53.806;11.598;2023-09-18T04:36:15;17.50;65.90
4406;DHT22;2216;53.806;11.598;2023-09-18T04:38:40;17.50;65.90
4406;DHT22;2216;53.806;11.598;2023-09-18T04:41:06;17.50;65.90
4406;DHT22;2216;53.806;11.598;2023-09-18T04:43:39;17.50;66.00
4406;DHT22;2216;53.806;11.598;2023-09-18T04:46:05;17.50;65.80
4406;DHT22;2216;53.806;11.598;2023-09-18T04:48:31;17.50;65.80
4406;DHT22;2216;53.806;11.598;2023-09-18T04:50:58;17.50;65.80
4406;DHT22;2216;53.806;11.598;2023-09-18T04:53:25;17.50;65.80
4406;DHT22;2216;53.806;11.598;2023-09-18T04:55:51;17.50;65.70
4406;DHT22;2216;53.806;11.598;2023-09-18T04:58:17;17.50;65.90
4406;DHT22;2216;53.806;11.598;2023-09-18T05:00:43;17.50;65.90
4406;DHT22;2216;53.806;11.598;2023-09-18T05:03:09;17.50;66.00
4406;DHT22;2216;53.806;11.598;2023-09-18T05:05:36;17.50;66.00
4406;DHT22;2216;53.806;11.598;2023-09-18T05:08:04;17.50;66.10
4406;DHT22;2216;53.806;11.598;2023-09-18T05:10:33;17.50;66.10
4406;DHT22;2216;53.806;11.598;2023-09-18T05:13:00;17.50;66.20
4406;DHT22;2216;53.806;11.598;2023-09-18T05:15:26;17.60;66.70
4406;DHT22;2216;53.806;11.598;2023-09-18T05:17:54;17.50;66.50
4406;DHT22;2216;53.806;11.598;2023-09-18T05:20:24;17.50;66.40
4406;DHT22;2216;53.806;11.598;2023-09-18T05:22:54;17.60;66.80
4406;DHT22;2216;53.806;11.598;2023-09-18T05:25:21;17.60;66.70
4406;DHT22;2216;53.806;11.598;2023-09-18T05:27:52;17.60;66.70
4406;DHT22;2216;53.806;11.598;2023-09-18T05:30:26;17.60;66.90
4406;DHT22;2216;53.806;11.598;2023-09-18T05:32:57;17.70;66.90
4406;DHT22;2216;53.806;11.598;2023-09-18T05:35:23;17.70;66.70
4406;DHT22;2216;53.806;11.598;2023-09-18T05:37:50;17.70;66.80
4406;DHT22;2216;53.806;11.598;2023-09-18T05:40:22;17.80;67.10
4406;DHT22;2216;53.806;11.598;2023-09-18T05:42:47;17.80;67.40
4406;DHT22;2216;53.806;11.598;2023-09-18T05:45:14;17.80;67.00
4406;DHT22;2216;53.806;11.598;2023-09-18T05:47:40;17.90;67.30
4406;DHT22;2216;53.806;11.598;2023-09-18T05:50:09;18.00;67.20
4406;DHT22;2216;53.806;11.598;2023-09-18T05:52:35;18.00;67.60
4406;DHT22;2216;53.806;11.598;2023-09-18T05:55:04;18.10;67.70
4406;DHT22;2216;53.806;11.598;2023-09-18T05:57:32;18.20;67.70
4406;DHT22;2216;53.806;11.598;2023-09-18T05:59:58;18.30;67.80
4406;DHT22;2216;53.806;11.598;2023-09-18T06:02:23;18.40;67.90
4406;DHT22;2216;53.806;11.598;2023-09-18T06:04:59;18.50;67.70
4406;DHT22;2216;53.806;11.598;2023-09-18T06:07:29;18.30;67.40
4406;DHT22;2216;53.806;11.598;2023-09-18T06:09:57;18.60;67.50
4406;DHT22;2216;53.806;11.598;2023-09-18T06:12:23;18.60;67.10
4406;DHT22;2216;53.806;11.598;2023-09-18T06:14:50;18.70;67.00
4406;DHT22;2216;53.806;11.598;2023-09-18T06:17:16;18.70;67.10
4406;DHT22;2216;53.806;11.598;2023-09-18T06:19:42;18.70;67.00
4406;DHT22;2216;53.806;11.598;2023-09-18T06:22:08;18.70;66.80
4406;DHT22;2216;53.806;11.598;2023-09-18T06:24:34;18.70;66.70
4406;DHT22;2216;53.806;11.598;2023-09-18T06:27:00;18.70;66.60
4406;DHT22;2216;53.806;11.598;2023-09-18T06:29:27;18.80;66.80
4406;DHT22;2216;53.806;11.598;2023-09-18T06:31:52;18.70;66.90
4406;DHT22;2216;53.806;11.598;2023-09-18T06:34:18;18.80;66.80
4406;DHT22;2216;53.806;11.598;2023-09-18T06:36:44;18.80;66.90
4406;DHT22;2216;53.806;11.598;2023-09-18T06:39:09;18.80;66.80
4406;DHT22;2216;53.806;11.598;2023-09-18T06:41:35;18.90;66.90
4406;DHT22;2216;53.806;11.598;2023-09-18T06:44:02;18.90;67.00
4406;DHT22;2216;53.806;11.598;2023-09-18T06:46:28;19.00;67.10
4406;DHT22;2216;53.806;11.598;2023-09-18T06:48:54;19.10;67.30
4406;DHT22;2216;53.806;11.598;2023-09-18T06:51:21;19.10;67.30
4406;DHT22;2216;53.806;11.598;2023-09-18T06:53:48;19.20;67.40
4406;DHT22;2216;53.806;11.598;2023-09-18T06:56:14;19.20;67.50
4406;DHT22;2216;53.806;11.598;2023-09-18T06:58:39;19.40;67.50
4406;DHT22;2216;53.806;11.598;2023-09-18T07:01:05;19.40;67.40
4406;DHT22;2216;53.806;11.598;2023-09-18T07:03:35;19.50;67.20
4406;DHT22;2216;53.806;11.598;2023-09-18T07:06:02;19.60;67.20
4406;DHT22;2216;53.806;11.598;2023-09-18T07:08:29;19.60;67.50
4406;DHT22;2216;53.806;11.598;2023-09-18T07:10:56;19.80;67.30
4406;DHT22;2216;53.806;11.598;2023-09-18T07:13:22;19.80;67.50
4406;DHT22;2216;53.806;11.598;2023-09-18T07:15:48;20.00;67.40
4406;DHT22;2216;53.806;11.598;2023-09-18T07:18:13;20.10;67.30
4406;DHT22;2216;53.806;11.598;2023-09-18T07:20:43;20.20;67.30
4406;DHT22;2216;53.806;11.598;2023-09-18T07:23:09;20.30;67.30
4406;DHT22;2216;53.806;11.598;2023-09-18T07:25:35;20.40;67.30
4406;DHT22;2216;53.806;11.598;2023-09-18T07:28:07;20.50;67.30
4406;DHT22;2216;53.806;11.598;2023-09-18T07:30:33;20.60;67.30
4406;DHT22;2216;53.806;11.598;2023-09-18T07:32:59;20.70;67.20
4406;DHT22;2216;53.806;11.598;2023-09-18T07:35:26;20.80;67.20
4406;DHT22;2216;53.806;11.598;2023-09-18T07:37:52;20.90;67.00
4406;DHT22;2216;53.806;11.598;2023-09-18T07:40:17;21.00;66.90
4406;DHT22;2216;53.806;11.598;2023-09-18T07:42:43;21.10;66.90
4406;DHT22;2216;53.806;11.598;2023-09-18T07:45:10;21.20;66.90
4406;DHT22;2216;53.806;11.598;2023-09-18T07:47:36;21.30;66.90
4406;DHT22;2216;53.806;11.598;2023-09-18T07:50:02;21.40;66.80
4406;DHT22;2216;53.806;11.598;2023-09-18T07:52:29;21.50;66.70
4406;DHT22;2216;53.806;11.598;2023-09-18T07:54:55;21.50;66.60
4406;DHT22;2216;53.806;11.598;2023-09-18T07:57:23;21.60;66.50
4406;DHT22;2216;53.806;11.598;2023-09-18T07:59:49;21.60;66.60
4406;DHT22;2216;53.806;11.598;2023-09-18T08:02:16;21.70;66.50
4406;DHT22;2216;53.806;11.598;2023-09-18T08:04:43;21.80;66.50
4406;DHT22;2216;53.806;11.598;2023-09-18T08:07:09;21.90;66.50
4406;DHT22;2216;53.806;11.598;2023-09-18T08:09:34;22.00;66.40
4406;DHT22;2216;53.806;11.598;2023-09-18T08:12:07;22.10;66.20
4406;DHT22;2216;53.806;11.598;2023-09-18T08:14:36;22.20;66.10
4406;DHT22;2216;53.806;11.598;2023-09-18T08:17:03;22.30;66.10
4406;DHT22;2216;53.806;11.598;2023-09-18T08:19:30;22.30;65.90
4406;DHT22;2216;53.806;11.598;2023-09-18T08:21:58;22.40;65.90
4406;DHT22;2216;53.806;11.598;2023-09-18T08:24:25;22.40;65.70
4406;DHT22;2216;53.806;11.598;2023-09-18T08:26:51;22.50;65.80
4406;DHT22;2216;53.806;11.598;2023-09-18T08:29:17;22.60;65.80
4406;DHT22;2216;53.806;11.598;2023-09-18T08:31:43;22.60;65.70
4406;DHT22;2216;53.806;11.598;2023-09-18T08:34:09;22.70;65.70
4406;DHT22;2216;53.806;11.598;2023-09-18T08:36:34;22.80;65.70
4406;DHT22;2216;53.806;11.598;2023-09-18T08:39:00;22.80;65.60
4406;DHT22;2216;53.806;11.598;2023-09-18T08:41:28;22.90;65.60
4406;DHT22;2216;53.806;11.598;2023-09-18T08:44:00;23.00;65.40
4406;DHT22;2216;53.806;11.598;2023-09-18T08:46:28;23.00;65.30
4406;DHT22;2216;53.806;11.598;2023-09-18T08:49:00;23.10;65.10
4406;DHT22;2216;53.806;11.598;2023-09-18T08:51:27;23.10;65.10
4406;DHT22;2216;53.806;11.598;2023-09-18T08:53:54;23.10;65.10
4406;DHT22;2216;53.806;11.598;2023-09-18T08:56:21;23.20;65.20
4406;DHT22;2216;53.806;11.598;2023-09-18T08:58:47;23.30;65.30
4406;DHT22;2216;53.806;11.598;2023-09-18T09:01:13;23.40;65.50
4406;DHT22;2216;53.806;11.598;2023-09-18T09:03:40;23.50;65.30
4406;DHT22;2216;53.806;11.598;2023-09-18T09:06:11;23.60;65.30
4406;DHT22;2216;53.806;11.598;2023-09-18T09:08:38;23.70;65.20
4406;DHT22;2216;53.806;11.598;2023-09-18T09:11:04;23.80;65.30
4406;DHT22;2216;53.806;11.598;2023-09-18T09:13:31;23.90;65.20
4406;DHT22;2216;53.806;11.598;2023-09-18T09:15:58;24.00;65.00
4406;DHT22;2216;53.806;11.598;2023-09-18T09:18:26;24.10;65.00
4406;DHT22;2216;53.806;11.598;2023-09-18T09:21:01;24.10;64.60
4406;DHT22;2216;53.806;11.598;2023-09-18T09:23:50;24.20;64.70
4406;DHT22;2216;53.806;11.598;2023-09-18T09:26:19;24.20;64.50
4406;DHT22;2216;53.806;11.598;2023-09-18T09:28:47;24.20;64.50
4406;DHT22;2216;53.806;11.598;2023-09-18T09:31:27;24.30;64.20
4406;DHT22;2216;53.806;11.598;2023-09-18T09:33:56;24.30;64.20
4406;DHT22;2216;53.806;11.598;2023-09-18T09:36:23;24.30;64.20
4406;DHT22;2216;53.806;11.598;2023-09-18T09:38:55;24.30;64.30
4406;DHT22;2216;53.806;11.598;2023-09-18T09:41:24;24.30;64.30
4406;DHT22;2216;53.806;11.598;2023-09-18T09:43:54;24.40;64.10
4406;DHT22;2216;53.806;11.598;2023-09-18T09:46:22;24.40;64.80
4406;DHT22;2216;53.806;11.598;2023-09-18T09:49:04;24.50;64.30
4406;DHT22;2216;53.806;11.598;2023-09-18T09:51:31;24.50;64.00
4406;DHT22;2216;53.806;11.598;2023-09-18T09:53:57;24.60;64.20
4406;DHT22;2216;53.806;11.598;2023-09-18T09:56:46;24.70;64.00
4406;DHT22;2216;53.806;11.598;2023-09-18T09:59:14;24.70;63.90
4406;DHT22;2216;53.806;11.598;2023-09-18T10:01:41;24.70;63.80
4406;DHT22;2216;53.806;11.598;2023-09-18T10:04:13;24.70;63.50
4406;DHT22;2216;53.806;11.598;2023-09-18T10:06:44;24.80;63.60
4406;DHT22;2216;53.806;11.598;2023-09-18T10:09:13;24.90;64.00
4406;DHT22;2216;53.806;11.598;2023-09-18T10:11:42;25.00;63.90
4406;DHT22;2216;53.806;11.598;2023-09-18T10:14:12;25.10;63.80
4406;DHT22;2216;53.806;11.598;2023-09-18T10:16:45;25.30;63.70
4406;DHT22;2216;53.806;11.598;2023-09-18T10:19:21;25.40;63.60
4406;DHT22;2216;53.806;11.598;2023-09-18T10:25:15;25.60;63.10
4406;DHT22;2216;53.806;11.598;2023-09-18T10:27:46;25.60;62.00
4406;DHT22;2216;53.806;11.598;2023-09-18T10:30:15;25.60;62.00
4406;DHT22;2216;53.806;11.598;2023-09-18T10:32:44;25.60;61.60
4406;DHT22;2216;53.806;11.598;2023-09-18T10:35:14;25.60;61.90
4406;DHT22;2216;53.806;11.598;2023-09-18T10:37:42;25.60;61.60
4406;DHT22;2216;53.806;11.598;2023-09-18T10:40:12;25.50;61.60
4406;DHT22;2216;53.806;11.598;2023-09-18T10:42:40;25.50;61.50
4406;DHT22;2216;53.806;11.598;2023-09-18T10:45:09;25.40;61.90
4406;DHT22;2216;53.806;11.598;2023-09-18T10:47:41;25.40;61.50
4406;DHT22;2216;53.806;11.598;2023-09-18T10:50:10;25.30;62.00
4406;DHT22;2216;53.806;11.598;2023-09-18T10:52:42;25.30;61.80
4406;DHT22;2216;53.806;11.598;2023-09-18T10:55:11;25.60;62.00
4406;DHT22;2216;53.806;11.598;2023-09-18T10:57:52;25.30;61.90
4406;DHT22;2216;53.806;11.598;2023-09-18T11:00:21;25.40;61.90
4406;DHT22;2216;53.806;11.598;2023-09-18T11:02:52;25.40;61.70
4406;DHT22;2216;53.806;11.598;2023-09-18T11:05:33;25.50;61.50
4406;DHT22;2216;53.806;11.598;2023-09-18T11:11:06;25.50;61.20
4406;DHT22;2216;53.806;11.598;2023-09-18T11:13:51;25.50;60.90
4406;DHT22;2216;53.806;11.598;2023-09-18T11:19:16;25.40;61.20
4406;DHT22;2216;53.806;11.598;2023-09-18T11:21:43;25.30;61.20
4406;DHT22;2216;53.806;11.598;2023-09-18T11:24:16;25.30;60.80
4406;DHT22;2216;53.806;11.598;2023-09-18T11:26:48;25.20;61.10
4406;DHT22;2216;53.806;11.598;2023-09-18T11:29:17;25.20;61.00
4406;DHT22;2216;53.806;11.598;2023-09-18T11:31:49;25.10;61.30
4406;DHT22;2216;53.806;11.598;2023-09-18T11:34:27;25.10;61.30
4406;DHT22;2216;53.806;11.598;2023-09-18T11:36:54;25.10;61.10
4406;DHT22;2216;53.806;11.598;2023-09-18T11:39:37;25.10;61.40
4406;DHT22;2216;53.806;11.598;2023-09-18T11:42:14;25.10;61.50
4406;DHT22;2216;53.806;11.598;2023-09-18T11:44:43;25.10;61.30
4406;DHT22;2216;53.806;11.598;2023-09-18T11:47:14;25.10;61.20
4406;DHT22;2216;53.806;11.598;2023-09-18T11:49:52;25.10;61.40
4406;DHT22;2216;53.806;11.598;2023-09-18T11:52:27;25.00;61.20
4406;DHT22;2216;53.806;11.598;2023-09-18T11:54:57;25.00;61.40
4406;DHT22;2216;53.806;11.598;2023-09-18T11:57:23;25.00;61.20
4406;DHT22;2216;53.806;11.598;2023-09-18T11:59:50;25.00;61.10
4406;DHT22;2216;53.806;11.598;2023-09-18T12:02:30;25.00;61.00
4406;DHT22;2216;53.806;11.598;2023-09-18T12:05:09;24.90;60.90
4406;DHT22;2216;53.806;11.598;2023-09-18T12:07:36;24.90;60.80
4406;DHT22;2216;53.806;11.598;2023-09-18T12:10:05;24.90;61.10
4406;DHT22;2216;53.806;11.598;2023-09-18T12:12:32;24.80;60.70
4406;DHT22;2216;53.806;11.598;2023-09-18T12:14:58;24.80;60.80
4406;DHT22;2216;53.806;11.598;2023-09-18T12:17:23;24.70;60.80
4406;DHT22;2216;53.806;11.598;2023-09-18T12:19:56;24.70;60.90
4406;DHT22;2216;53.806;11.598;2023-09-18T12:22:28;24.60;60.60
4406;DHT22;2216;53.806;11.598;2023-09-18T12:25:15;24.60;61.00
4406;DHT22;2216;53.806;11.598;2023-09-18T12:27:42;24.50;60.80
4406;DHT22;2216;53.806;11.598;2023-09-18T12:30:09;24.50;61.00
4406;DHT22;2216;53.806;11.598;2023-09-18T12:32:39;24.40;61.20
4406;DHT22;2216;53.806;11.598;2023-09-18T12:35:08;24.40;61.20
4406;DHT22;2216;53.806;11.598;2023-09-18T12:37:35;24.40;62.10
4406;DHT22;2216;53.806;11.598;2023-09-18T12:40:05;24.30;61.40
4406;DHT22;2216;53.806;11.598;2023-09-18T12:42:37;24.30;61.60
4406;DHT22;2216;53.806;11.598;2023-09-18T12:45:06;24.30;61.50
4406;DHT22;2216;53.806;11.598;2023-09-18T12:47:33;24.30;61.60
4406;DHT22;2216;53.806;11.598;2023-09-18T12:50:03;24.30;61.60
4406;DHT22;2216;53.806;11.598;2023-09-18T12:52:30;24.30;61.70
4406;DHT22;2216;53.806;11.598;2023-09-18T12:54:58;24.30;61.80
4406;DHT22;2216;53.806;11.598;2023-09-18T12:57:25;24.30;61.70
4406;DHT22;2216;53.806;11.598;2023-09-18T12:59:51;24.30;61.50
4406;DHT22;2216;53.806;11.598;2023-09-18T13:02:18;24.30;61.60
4406;DHT22;2216;53.806;11.598;2023-09-18T13:04:56;24.30;61.50
4406;DHT22;2216;53.806;11.598;2023-09-18T13:07:23;24.40;61.60
4406;DHT22;2216;53.806;11.598;2023-09-18T13:10:05;24.30;61.60
4406;DHT22;2216;53.806;11.598;2023-09-18T13:12:49;24.30;61.50
4406;DHT22;2216;53.806;11.598;2023-09-18T13:15:27;24.30;61.70
4406;DHT22;2216;53.806;11.598;2023-09-18T13:17:54;24.30;61.80
4406;DHT22;2216;53.806;11.598;2023-09-18T13:20:28;24.30;61.90
4406;DHT22;2216;53.806;11.598;2023-09-18T13:23:03;24.40;62.00
4406;DHT22;2216;53.806;11.598;2023-09-18T13:25:31;24.40;62.20
4406;DHT22;2216;53.806;11.598;2023-09-18T13:28:02;24.50;62.40
4406;DHT22;2216;53.806;11.598;2023-09-18T13:30:30;24.60;62.50
4406;DHT22;2216;53.806;11.598;2023-09-18T13:33:05;24.80;62.70
4406;DHT22;2216;53.806;11.598;2023-09-18T13:35:33;24.80;62.50
4406;DHT22;2216;53.806;11.598;2023-09-18T13:37:59;24.90;62.60
4406;DHT22;2216;53.806;11.598;2023-09-18T13:40:25;25.00;62.30
4406;DHT22;2216;53.806;11.598;2023-09-18T13:42:50;25.10;62.20
4406;DHT22;2216;53.806;11.598;2023-09-18T13:45:16;25.20;62.00
4406;DHT22;2216;53.806;11.598;2023-09-18T13:47:43;25.30;61.90
4406;DHT22;2216;53.806;11.598;2023-09-18T13:50:09;25.30;62.10
4406;DHT22;2216;53.806;11.598;2023-09-18T13:52:36;25.40;62.20
4406;DHT22;2216;53.806;11.598;2023-09-18T13:55:03;25.50;62.50
4406;DHT22;2216;53.806;11.598;2023-09-18T13:57:32;25.70;62.60
4406;DHT22;2216;53.806;11.598;2023-09-18T14:00:00;25.80;62.30
4406;DHT22;2216;53.806;11.598;2023-09-18T14:02:30;26.00;62.20
4406;DHT22;2216;53.806;11.598;2023-09-18T14:04:56;26.10;62.00
4406;DHT22;2216;53.806;11.598;2023-09-18T14:07:22;26.20;62.50
4406;DHT22;2216;53.806;11.598;2023-09-18T14:09:48;26.30;61.60
4406;DHT22;2216;53.806;11.598;2023-09-18T14:12:14;26.30;61.60
4406;DHT22;2216;53.806;11.598;2023-09-18T14:14:43;26.40;61.60
4406;DHT22;2216;53.806;11.598;2023-09-18T14:17:10;26.20;60.80
4406;DHT22;2216;53.806;11.598;2023-09-18T14:19:36;26.40;60.70
4406;DHT22;2216;53.806;11.598;2023-09-18T14:22:06;26.30;60.60
4406;DHT22;2216;53.806;11.598;2023-09-18T14:24:32;26.30;60.60
4406;DHT22;2216;53.806;11.598;2023-09-18T14:27:00;26.20;60.60
4406;DHT22;2216;53.806;11.598;2023-09-18T14:29:26;26.20;61.50
4406;DHT22;2216;53.806;11.598;2023-09-18T14:31:52;26.20;60.90
4406;DHT22;2216;53.806;11.598;2023-09-18T14:34:18;26.10;60.80
4406;DHT22;2216;53.806;11.598;2023-09-18T14:36:44;26.10;60.90
4406;DHT22;2216;53.806;11.598;2023-09-18T14:39:10;26.00;60.90
4406;DHT22;2216;53.806;11.598;2023-09-18T14:41:38;26.00;60.70
4406;DHT22;2216;53.806;11.598;2023-09-18T14:44:05;26.10;60.80
4406;DHT22;2216;53.806;11.598;2023-09-18T14:46:34;26.00;61.00
4406;DHT22;2216;53.806;11.598;2023-09-18T14:49:01;26.00;61.20
4406;DHT22;2216;53.806;11.598;2023-09-18T14:51:27;26.10;61.50
4406;DHT22;2216;53.806;11.598;2023-09-18T14:53:58;26.10;61.60
4406;DHT22;2216;53.806;11.598;2023-09-18T14:56:24;26.20;61.50
4406;DHT22;2216;53.806;11.598;2023-09-18T14:58:49;26.20;61.50
4406;DHT22;2216;53.806;11.598;2023-09-18T15:01:20;26.30;62.40
4406;DHT22;2216;53.806;11.598;2023-09-18T15:03:47;26.30;61.50
4406;DHT22;2216;53.806;11.598;2023-09-18T15:06:16;26.40;61.50
4406;DHT22;2216;53.806;11.598;2023-09-18T15:08:42;26.40;61.20
4406;DHT22;2216;53.806;11.598;2023-09-18T15:11:10;26.40;61.10
4406;DHT22;2216;53.806;11.598;2023-09-18T15:13:36;26.40;61.10
4406;DHT22;2216;53.806;11.598;2023-09-18T15:16:02;26.40;61.20
4406;DHT22;2216;53.806;11.598;2023-09-18T15:18:28;26.40;61.20
4406;DHT22;2216;53.806;11.598;2023-09-18T15:20:54;26.30;61.20
4406;DHT22;2216;53.806;11.598;2023-09-18T15:23:24;26.40;61.30
4406;DHT22;2216;53.806;11.598;2023-09-18T15:25:51;26.40;61.20
4406;DHT22;2216;53.806;11.598;2023-09-18T15:28:22;26.30;61.00
4406;DHT22;2216;53.806;11.598;2023-09-18T15:30:50;26.30;60.90
4406;DHT22;2216;53.806;11.598;2023-09-18T15:33:16;26.30;60.90
4406;DHT22;2216;53.806;11.598;2023-09-18T15:35:43;26.20;60.80
4406;DHT22;2216;53.806;11.598;2023-09-18T15:38:09;26.10;60.80
4406;DHT22;2216;53.806;11.598;2023-09-18T15:40:35;26.10;60.80
4406;DHT22;2216;53.806;11.598;2023-09-18T15:43:01;26.00;60.80
4406;DHT22;2216;53.806;11.598;2023-09-18T15:45:27;26.00;60.80
4406;DHT22;2216;53.806;11.598;2023-09-18T15:47:53;25.90;60.80
4406;DHT22;2216;53.806;11.598;2023-09-18T15:50:18;25.80;60.70
4406;DHT22;2216;53.806;11.598;2023-09-18T15:52:45;25.70;60.60
4406;DHT22;2216;53.806;11.598;2023-09-18T15:55:10;25.70;60.70
4406;DHT22;2216;53.806;11.598;2023-09-18T15:57:37;25.60;60.60
4406;DHT22;2216;53.806;11.598;2023-09-18T16:00:05;25.50;60.60
4406;DHT22;2216;53.806;11.598;2023-09-18T16:02:32;25.40;60.60